Time;durP1;ratioP1;P1;durP2;ratioP2;P2;SDS_P1;SDS_P2;PMS_P1;PMS_P2;Temp;Humidity;BMP_temperature;BMP_pressure;BME280_temperature;BME280_humidity;BME280_pressure;Samples;Min_cycle;Max_cycle;Signal;HPM_P1;HPM_P2
2023/09/01 00:00:43;;;;;;;10.05;4.50;;;19.70;96.30;;;;;;5059138;28;20038;-74
2023/09/01 00:03:10;;;;;;;8.35;4.45;;;19.80;96.10;;;;;;5051424;28;20446;-73
2023/09/01 00:05:38;;;;;;;11.07;5.13;;;19.70;96.30;;;;;;5051536;28;20618;-74
2023/09/01 00:08:07;;;;;;;8.90;4.50;;;19.90;96.20;;;;;;5049711;28;20033;-77
2023/09/01 00:10:39;;;;;;;12.40;5.68;;;19.90;96.30;;;;;;5064486;28;20044;-73
2023/09/01 00:13:06;;;;;;;10.30;4.32;;;19.80;96.50;;;;;;5053998;28;20136;-73
2023/09/01 00:15:34;;;;;;;9.00;4.32;;;19.70;96.40;;;;;;5037520;28;20051;-74
2023/09/01 00:18:02;;;;;;;11.25;4.50;;;19.70;96.70;;;;;;5053678;28;20044;-76
2023/09/01 00:20:34;;;;;;;10.73;5.13;;;19.60;96.80;;;;;;5033528;28;20041;-74
2023/09/01 00:23:05;;;;;;;9.20;4.70;;;19.60;97.20;;;;;;5033821;28;20048;-73
2023/09/01 00:25:32;;;;;;;18.33;4.97;;;19.50;97.60;;;;;;5055416;28;20047;-74
2023/09/01 00:27:59;;;;;;;8.85;4.32;;;19.60;97.30;;;;;;5034082;28;20128;-72
2023/09/01 00:30:29;;;;;;;14.80;4.78;;;19.60;97.20;;;;;;5035721;28;20120;-71
2023/09/01 00:32:57;;;;;;;11.50;4.93;;;19.50;97.40;;;;;;5052700;28;20601;-73
2023/09/01 00:35:24;;;;;;;15.90;5.28;;;19.50;97.40;;;;;;5022290;28;20048;-71
2023/09/01 00:37:53;;;;;;;9.30;5.03;;;19.30;97.50;;;;;;5053578;28;20057;-77
2023/09/01 00:40:20;;;;;;;15.20;5.35;;;19.20;97.40;;;;;;5034523;28;20051;-81
2023/09/01 00:42:48;;;;;;;12.43;4.68;;;19.20;97.40;;;;;;5036336;28;20107;-77
2023/09/01 00:45:16;;;;;;;9.10;4.53;;;19.20;97.80;;;;;;5064376;28;20033;-80
2023/09/01 00:47:43;;;;;;;9.98;4.68;;;19.20;97.80;;;;;;5045601;28;20040;-75
2023/09/01 00:50:12;;;;;;;9.88;4.93;;;19.10;97.90;;;;;;5055693;28;20039;-72
2023/09/01 00:52:39;;;;;;;9.88;5.00;;;19.10;97.80;;;;;;5015117;28;20037;-73
2023/09/01 00:55:07;;;;;;;12.55;5.75;;;19.00;97.80;;;;;;5049450;28;20037;-75
2023/09/01 00:57:34;;;;;;;11.85;5.07;;;19.10;98.00;;;;;;5050322;28;20146;-74
2023/09/01 01:00:05;;;;;;;8.60;5.15;;;19.00;98.00;;;;;;5052412;28;20028;-76
2023/09/01 01:02:33;;;;;;;10.52;4.55;;;19.00;98.10;;;;;;5050051;28;20365;-73
2023/09/01 01:05:00;;;;;;;10.45;4.53;;;19.10;98.10;;;;;;5050859;28;20037;-73
2023/09/01 01:07:40;;;;;;;11.18;4.70;;;19.10;98.10;;;;;;5032106;28;20045;-71
2023/09/01 01:10:32;;;;;;;10.87;4.77;;;18.90;98.50;;;;;;5033519;28;20033;-75
2023/09/01 01:13:15;;;;;;;8.23;4.15;;;18.90;98.70;;;;;;5020330;28;20361;-74
2023/09/01 01:15:45;;;;;;;8.75;4.55;;;19.00;98.70;;;;;;5050707;28;20036;-75
2023/09/01 01:18:15;;;;;;;10.65;4.80;;;19.00;98.80;;;;;;5030028;28;20049;-73
2023/09/01 01:20:46;;;;;;;8.32;4.43;;;18.70;99.30;;;;;;5046311;28;20087;-74
2023/09/01 01:23:17;;;;;;;8.70;4.65;;;18.80;99.30;;;;;;5031413;28;20072;-73
2023/09/01 01:25:45;;;;;;;;;;;18.70;99.40;;;;;;5047475;28;20064;-72
2023/09/01 01:28:15;;;;;;;10.55;4.80;;;18.50;99.70;;;;;;5049290;28;19917;-74
2023/09/01 01:30:43;;;;;;;8.40;4.18;;;18.50;99.70;;;;;;5036527;28;20494;-73
2023/09/01 01:33:25;;;;;;;6.82;4.03;;;18.60;99.80;;;;;;5050901;28;20033;-73
2023/09/01 01:35:52;;;;;;;12.82;4.40;;;18.70;99.50;;;;;;5047129;28;20128;-73
2023/09/01 01:38:28;;;;;;;9.07;4.47;;;18.70;99.40;;;;;;5032325;28;20361;-72
2023/09/01 01:41:08;;;;;;;8.55;4.40;;;18.70;99.60;;;;;;5050995;28;20428;-73
2023/09/01 01:43:37;;;;;;;10.02;4.30;;;18.70;99.60;;;;;;5048641;28;20048;-72
2023/09/01 01:46:05;;;;;;;7.27;4.07;;;18.90;99.70;;;;;;5049875;28;20451;-73
2023/09/01 01:48:39;;;;;;;7.72;4.15;;;18.90;99.50;;;;;;5049536;28;20064;-74
2023/09/01 01:51:07;;;;;;;7.55;4.55;;;18.80;99.70;;;;;;5049639;28;20451;-77
2023/09/01 01:53:37;;;;;;;10.68;4.20;;;18.70;99.90;;;;;;5049511;28;20032;-75
2023/09/01 01:56:06;;;;;;;7.75;4.30;;;18.70;99.80;;;;;;5050127;28;20665;-74
2023/09/01 01:58:33;;;;;;;15.13;5.68;;;18.70;99.80;;;;;;5058242;28;20033;-74
2023/09/01 02:01:06;;;;;;;9.80;4.68;;;18.70;99.90;;;;;;5032243;28;20645;-74
2023/09/01 02:03:34;;;;;;;9.95;4.68;;;18.50;99.90;;;;;;5048943;28;20435;-75
2023/09/01 02:06:01;;;;;;;12.15;5.25;;;18.40;99.90;;;;;;5031656;28;20033;-74
2023/09/01 02:08:29;;;;;;;10.27;4.72;;;18.40;99.90;;;;;;5049862;28;20052;-74
2023/09/01 02:10:56;;;;;;;9.35;4.75;;;18.40;99.90;;;;;;5028780;28;20033;-75
2023/09/01 02:13:23;;;;;;;9.45;5.32;;;18.60;99.90;;;;;;5049025;28;20067;-78
2023/09/01 02:15:54;;;;;;;8.95;4.70;;;18.40;99.90;;;;;;5049800;28;20039;-75
2023/09/01 02:18:21;;;;;;;9.23;5.43;;;18.40;99.90;;;;;;5052026;28;20029;-74
2023/09/01 02:20:49;;;;;;;11.55;6.45;;;18.40;99.90;;;;;;5035564;28;20037;-75
2023/09/01 02:23:17;;;;;;;10.90;6.00;;;18.50;99.90;;;;;;5034646;28;20049;-74
2023/09/01 02:25:44;;;;;;;12.52;6.82;;;18.50;99.90;;;;;;5049485;28;20033;-71
2023/09/01 02:28:12;;;;;;;12.43;6.97;;;18.60;99.90;;;;;;5035456;28;20090;-75
2023/09/01 02:30:39;;;;;;;13.07;6.38;;;18.60;99.90;;;;;;5035464;28;20125;-75
2023/09/01 02:33:08;;;;;;;10.85;6.22;;;18.50;99.90;;;;;;5053102;28;20048;-73
2023/09/01 02:35:47;;;;;;;9.07;5.80;;;18.50;99.90;;;;;;5053094;28;20472;-73
2023/09/01 02:38:14;;;;;;;10.40;6.10;;;18.50;99.90;;;;;;5033019;28;20059;-75
2023/09/01 02:40:41;;;;;;;12.60;6.03;;;18.60;99.90;;;;;;5052750;28;20041;-74
2023/09/01 02:43:09;;;;;;;11.52;6.57;;;18.70;99.90;;;;;;5052129;28;20048;-74
2023/09/01 02:45:36;;;;;;;10.20;6.22;;;18.60;99.90;;;;;;5053261;28;20034;-73
2023/09/01 02:48:06;;;;;;;13.55;6.35;;;18.20;99.90;;;;;;5035207;28;20488;-73
2023/09/01 02:50:33;;;;;;;11.73;6.30;;;18.30;99.90;;;;;;5054505;28;20116;-74
2023/09/01 02:53:00;;;;;;;10.70;6.50;;;18.40;99.90;;;;;;5051591;28;20502;-72
2023/09/01 02:55:27;;;;;;;13.75;6.53;;;18.40;99.90;;;;;;5052619;28;20624;-74
2023/09/01 02:57:55;;;;;;;11.52;6.65;;;18.40;99.90;;;;;;5034659;28;20051;-77
2023/09/01 03:00:24;;;;;;;15.70;7.20;;;18.50;99.90;;;;;;5052925;28;20047;-74
2023/09/01 03:02:51;;;;;;;10.45;6.45;;;18.50;99.90;;;;;;5052420;28;20040;-73
2023/09/01 03:05:19;;;;;;;9.05;6.32;;;18.30;99.90;;;;;;5035177;28;20041;-73
2023/09/01 03:07:46;;;;;;;11.23;6.47;;;18.20;99.90;;;;;;5018333;28;20045;-72
2023/09/01 03:10:13;;;;;;;12.68;6.55;;;18.20;99.90;;;;;;5048233;28;20446;-74
2023/09/01 03:12:40;;;;;;;15.50;6.50;;;18.10;99.90;;;;;;5052588;28;20151;-74
2023/09/01 03:15:09;;;;;;;9.25;5.82;;;18.10;99.90;;;;;;5052182;28;20442;-73
2023/09/01 03:17:36;;;;;;;13.55;7.13;;;18.00;99.90;;;;;;5052572;28;20041;-73
2023/09/01 03:20:05;;;;;;;12.73;6.65;;;18.00;99.90;;;;;;5017841;28;20446;-73
2023/09/01 03:22:32;;;;;;;12.90;5.97;;;18.10;99.90;;;;;;5017003;28;20045;-73
2023/09/01 03:25:00;;;;;;;11.77;6.30;;;18.00;99.90;;;;;;5034927;28;20051;-73
2023/09/01 03:27:30;;;;;;;11.45;6.25;;;18.10;99.90;;;;;;5051699;28;20391;-74
2023/09/01 03:29:57;;;;;;;8.95;5.82;;;18.10;99.90;;;;;;5034026;28;20041;-74
2023/09/01 03:32:24;;;;;;;10.40;6.03;;;17.90;99.90;;;;;;5033514;28;20033;-75
2023/09/01 03:34:52;;;;;;;14.63;6.57;;;17.80;99.90;;;;;;5052271;28;20044;-74
2023/09/01 03:37:19;;;;;;;10.75;6.53;;;17.80;99.90;;;;;;5051221;28;20530;-74
2023/09/01 03:39:46;;;;;;;10.45;6.10;;;18.00;99.90;;;;;;5052075;28;20033;-74
2023/09/01 03:42:13;;;;;;;11.32;6.20;;;18.10;99.90;;;;;;5050966;28;20033;-73
2023/09/01 03:44:41;;;;;;;11.93;5.90;;;18.00;99.90;;;;;;5052401;28;20156;-74
2023/09/01 03:47:09;;;;;;;11.90;6.80;;;17.80;99.90;;;;;;5051015;28;20049;-74
2023/09/01 03:49:37;;;;;;;14.02;5.50;;;17.80;99.90;;;;;;5052017;28;20037;-73
2023/09/01 03:52:06;;;;;;;10.13;5.90;;;17.90;99.90;;;;;;5050781;28;20400;-74
2023/09/01 03:54:33;;;;;;;11.93;5.40;;;17.90;99.90;;;;;;5017506;28;20546;-73
2023/09/01 03:57:00;;;;;;;12.50;5.43;;;18.00;99.90;;;;;;5055680;28;20029;-74
2023/09/01 03:59:28;;;;;;;8.95;5.53;;;18.00;99.90;;;;;;5033560;28;20355;-75
2023/09/01 04:01:55;;;;;;;13.02;5.78;;;17.90;99.90;;;;;;5034370;28;20055;-73
2023/09/01 04:04:22;;;;;;;11.48;5.85;;;17.80;99.90;;;;;;5051652;28;20040;-73
2023/09/01 04:06:50;;;;;;;16.55;8.05;;;17.80;99.90;;;;;;5051254;28;20033;-75
2023/09/01 04:09:17;;;;;;;17.13;9.00;;;17.90;99.90;;;;;;5033417;28;20041;-72
2023/09/01 04:11:44;;;;;;;15.38;7.70;;;18.00;99.90;;;;;;5032943;28;20049;-72
2023/09/01 04:14:11;;;;;;;19.65;8.55;;;18.00;99.90;;;;;;5055459;28;20369;-71
2023/09/01 04:16:39;;;;;;;15.02;7.45;;;18.10;99.90;;;;;;5033054;28;20588;-73
2023/09/01 04:19:06;;;;;;;14.02;6.40;;;18.00;99.90;;;;;;5033059;28;20030;-76
2023/09/01 04:21:33;;;;;;;12.07;6.80;;;17.90;99.90;;;;;;5050833;28;20521;-76
2023/09/01 04:24:00;;;;;;;26.15;13.00;;;17.80;99.90;;;;;;5051124;28;20380;-73
2023/09/01 04:26:27;;;;;;;21.00;11.20;;;17.60;99.90;;;;;;5032761;28;20770;-73
2023/09/01 04:28:55;;;;;;;14.85;8.00;;;17.60;99.90;;;;;;5052060;28;20040;-72
2023/09/01 04:31:26;;;;;;;15.10;7.15;;;17.70;99.90;;;;;;5033036;28;20033;-72
2023/09/01 04:33:55;;;;;;;10.85;6.68;;;17.90;99.90;;;;;;5050681;28;20025;-73
2023/09/01 04:36:25;;;;;;;12.93;5.57;;;17.80;99.90;;;;;;5032499;28;20036;-73
2023/09/01 04:39:12;;;;;;;14.48;6.22;;;17.70;99.90;;;;;;5033654;28;20043;-73
2023/09/01 04:41:40;;;;;;;13.02;6.57;;;17.80;99.90;;;;;;5015067;28;20036;-72
2023/09/01 04:44:07;;;;;;;13.30;6.60;;;17.90;99.90;;;;;;5051251;28;20040;-74
2023/09/01 04:46:35;;;;;;;10.77;5.70;;;18.00;99.90;;;;;;5032823;28;20456;-74
2023/09/01 04:49:02;;;;;;;12.90;5.97;;;18.10;99.90;;;;;;5051204;28;20420;-78
2023/09/01 04:51:29;;;;;;;43.17;23.23;;;18.10;99.90;;;;;;5052098;28;20064;-76
2023/09/01 04:53:57;;;;;;;22.65;13.90;;;18.10;99.90;;;;;;5051856;28;20481;-79
2023/09/01 04:56:24;;;;;;;52.60;29.95;;;18.20;99.90;;;;;;5050122;28;20086;-72
2023/09/01 04:58:53;;;;;;;47.17;30.83;;;18.20;99.90;;;;;;5034651;28;20043;-73
2023/09/01 05:01:20;;;;;;;38.13;22.33;;;18.30;99.90;;;;;;5037327;28;20180;-72
2023/09/01 05:03:48;;;;;;;32.10;19.55;;;18.50;99.90;;;;;;5036637;28;20419;-74
2023/09/01 05:06:15;;;;;;;109.82;65.32;;;18.50;99.90;;;;;;5033915;28;20029;-74
2023/09/01 05:08:42;;;;;;;156.38;102.57;;;18.50;99.90;;;;;;5050594;28;20033;-73
2023/09/01 05:11:10;;;;;;;28.00;20.00;;;18.60;99.90;;;;;;5050156;28;20040;-76
2023/09/01 05:13:37;;;;;;;16.15;8.93;;;18.60;99.90;;;;;;5032729;28;20045;-74
2023/09/01 05:16:07;;;;;;;13.10;6.88;;;18.50;99.90;;;;;;5033086;28;20041;-75
2023/09/01 05:18:34;;;;;;;9.80;6.27;;;18.50;99.90;;;;;;5033146;28;20107;-76
2023/09/01 05:21:02;;;;;;;13.63;7.72;;;18.40;99.90;;;;;;5050763;28;20032;-77
2023/09/01 05:23:32;;;;;;;19.75;11.05;;;18.50;99.90;;;;;;5016985;28;20045;-74
2023/09/01 05:26:02;;;;;;;29.67;17.75;;;18.60;99.90;;;;;;5017130;28;20136;-75
2023/09/01 05:28:29;;;;;;;25.23;14.25;;;18.70;99.90;;;;;;5051043;28;20095;-74
2023/09/01 05:30:57;;;;;;;26.63;14.63;;;18.90;99.90;;;;;;5050998;28;20091;-78
2023/09/01 05:33:24;;;;;;;23.73;14.75;;;19.00;99.90;;;;;;5051146;28;20033;-74
2023/09/01 05:35:51;;;;;;;25.40;16.20;;;19.20;99.90;;;;;;5047675;28;20448;-76
2023/09/01 05:38:19;;;;;;;92.15;54.10;;;19.20;99.90;;;;;;5050668;28;20059;-74
2023/09/01 05:41:01;;;;;;;37.70;27.40;;;19.20;99.90;;;;;;5014874;28;20052;-74
2023/09/01 05:43:31;;;;;;;12.77;8.52;;;19.10;99.90;;;;;;5016359;28;20060;-76
2023/09/01 05:45:59;;;;;;;12.70;7.32;;;19.00;99.90;;;;;;5052800;28;20048;-77
2023/09/01 05:48:27;;;;;;;11.50;6.28;;;19.00;99.90;;;;;;5033414;28;20037;-82
2023/09/01 05:50:55;;;;;;;9.98;6.20;;;19.00;99.90;;;;;;5034318;28;20527;-78
2023/09/01 05:53:23;;;;;;;8.77;5.25;;;19.20;99.90;;;;;;5021595;28;20056;-81
2023/09/01 05:55:50;;;;;;;12.43;5.72;;;19.40;99.90;;;;;;5056324;28;20045;-75
2023/09/01 05:58:19;;;;;;;10.77;5.55;;;19.50;99.90;;;;;;5056340;28;20029;-80
2023/09/01 06:00:49;;;;;;;16.75;6.95;;;19.70;99.90;;;;;;5026001;28;20507;-82
2023/09/01 06:03:20;;;;;;;13.88;5.05;;;19.90;99.90;;;;;;5030160;28;20468;-80
2023/09/01 06:05:52;;;;;;;9.00;4.97;;;19.90;99.90;;;;;;5051832;28;20081;-87
2023/09/01 06:08:21;;;;;;;12.32;4.68;;;19.60;99.90;;;;;;5033270;28;20055;-88
2023/09/01 06:10:48;;;;;;;14.07;4.22;;;19.60;99.90;;;;;;5047273;28;20049;-78
2023/09/01 06:13:16;;;;;;;11.05;4.88;;;19.60;99.90;;;;;;5040786;28;20419;-83
2023/09/01 06:15:44;;;;;;;6.47;3.92;;;19.50;99.90;;;;;;5059364;28;20100;-78
2023/09/01 06:18:12;;;;;;;13.00;4.47;;;19.60;99.90;;;;;;5061267;28;20085;-82
2023/09/01 06:20:40;;;;;;;9.07;4.18;;;19.90;99.90;;;;;;5064120;28;20092;-80
2023/09/01 06:23:09;;;;;;;7.38;4.03;;;20.10;99.90;;;;;;5065701;28;20051;-88
2023/09/01 06:25:37;;;;;;;9.20;4.18;;;20.10;99.90;;;;;;5057095;28;20035;-90
2023/09/01 06:28:04;;;;;;;8.73;3.70;;;20.20;99.90;;;;;;5072919;28;20060;-90
2023/09/01 06:30:32;;;;;;;11.32;3.90;;;20.30;99.90;;;;;;5054179;28;20069;-88
2023/09/01 06:32:59;;;;;;;5.22;3.20;;;20.40;99.90;;;;;;5054188;28;20442;-82
2023/09/01 06:35:27;;;;;;;6.32;3.38;;;20.30;99.90;;;;;;5071219;28;20103;-84
2023/09/01 06:37:56;;;;;;;7.50;3.25;;;20.30;99.90;;;;;;5054420;28;20036;-87
2023/09/01 06:40:27;;;;;;;9.43;3.60;;;20.50;99.90;;;;;;5071094;28;20395;-86
2023/09/01 06:42:55;;;;;;;6.67;3.00;;;20.50;99.90;;;;;;5057552;28;20044;-89
2023/09/01 06:45:28;;;;;;;8.65;3.42;;;20.70;99.90;;;;;;5059012;28;20029;-83
2023/09/01 06:47:57;;;;;;;13.75;3.30;;;20.80;99.90;;;;;;5070492;28;20064;-87
2023/09/01 06:50:25;;;;;;;7.72;3.88;;;20.90;99.90;;;;;;5055181;28;20109;-84
2023/09/01 06:52:56;;;;;;;12.05;4.30;;;21.00;99.90;;;;;;5035527;28;20038;-81
2023/09/01 06:55:26;;;;;;;10.55;4.40;;;21.10;99.90;;;;;;5068783;28;20101;-79
2023/09/01 06:57:53;;;;;;;11.50;5.88;;;21.20;99.60;;;;;;5035695;28;21040;-91
2023/09/01 07:00:21;;;;;;;8.65;4.15;;;21.30;99.40;;;;;;5050711;28;20480;-80
2023/09/01 07:02:48;;;;;;;7.25;3.25;;;21.30;98.90;;;;;;5050507;28;20063;-79
2023/09/01 07:05:17;;;;;;;9.82;3.20;;;21.40;98.70;;;;;;5059926;28;20029;-84
2023/09/01 07:07:59;;;;;;;12.98;3.17;;;21.40;98.60;;;;;;5033364;28;20033;-89
2023/09/01 07:10:41;;;;;;;6.88;3.03;;;21.30;98.70;;;;;;5055618;28;20041;-84
2023/09/01 07:13:10;;;;;;;10.35;3.50;;;21.30;98.70;;;;;;5070126;28;20033;-89
2023/09/01 07:15:52;;;;;;;6.00;3.08;;;21.40;98.50;;;;;;5051246;28;20029;-80
2023/09/01 07:18:19;;;;;;;14.48;4.90;;;21.60;98.50;;;;;;5053862;28;20029;-79
2023/09/01 07:20:50;;;;;;;11.38;4.63;;;21.70;98.30;;;;;;5033735;28;20070;-84
2023/09/01 07:23:18;;;;;;;7.47;3.53;;;21.80;98.20;;;;;;5031151;28;20067;-82
2023/09/01 07:25:55;;;;;;;10.05;3.63;;;21.90;98.10;;;;;;5068781;28;20056;-85
2023/09/01 07:28:23;;;;;;;10.00;4.28;;;21.90;98.00;;;;;;5068868;28;20036;-87
2023/09/01 07:30:50;;;;;;;8.18;3.50;;;21.90;97.80;;;;;;5047446;28;20101;-84
2023/09/01 07:33:21;;;;;;;8.00;3.15;;;22.00;97.70;;;;;;5068797;28;20526;-81
2023/09/01 07:35:52;;;;;;;6.15;3.13;;;22.00;97.30;;;;;;5063917;28;20028;-90
2023/09/01 07:38:19;;;;;;;7.80;3.33;;;22.10;97.20;;;;;;5052635;28;20044;-81
2023/09/01 07:40:48;;;;;;;8.35;3.05;;;22.10;97.20;;;;;;5052481;28;20048;-86
2023/09/01 07:43:18;;;;;;;6.35;3.72;;;22.30;97.10;;;;;;5072534;28;20048;-89
2023/09/01 07:45:50;;;;;;;7.22;2.60;;;22.30;96.70;;;;;;5063141;28;20055;-86
2023/09/01 07:48:17;;;;;;;6.22;3.13;;;22.30;96.70;;;;;;5048105;28;20060;-86
2023/09/01 07:50:49;;;;;;;7.78;3.10;;;22.30;96.50;;;;;;5071409;28;20040;-79
2023/09/01 07:53:17;;;;;;;8.38;3.00;;;22.40;96.50;;;;;;5036532;28;20045;-88
2023/09/01 07:55:56;;;;;;;6.50;3.45;;;22.60;96.20;;;;;;5051445;28;20024;-88
2023/09/01 07:58:41;;;;;;;8.80;3.08;;;22.80;95.80;;;;;;5044762;28;20049;-84
2023/09/01 08:01:11;;;;;;;6.45;2.55;;;22.90;95.50;;;;;;5035960;28;20045;-80
2023/09/01 08:03:45;;;;;;;7.75;2.72;;;22.90;95.60;;;;;;5054061;28;20032;-88
2023/09/01 08:06:16;;;;;;;10.25;3.20;;;22.90;95.20;;;;;;5048011;28;20025;-79
2023/09/01 08:08:43;;;;;;;8.07;2.92;;;23.00;95.10;;;;;;5066344;28;20067;-82
2023/09/01 08:11:10;;;;;;;8.52;2.95;;;23.20;95.00;;;;;;5044635;28;20124;-78
2023/09/01 08:13:39;;;;;;;6.57;2.92;;;23.30;94.50;;;;;;5024784;28;20064;-77
2023/09/01 08:16:07;;;;;;;4.65;2.60;;;23.20;94.10;;;;;;5063309;28;20464;-78
2023/09/01 08:18:34;;;;;;;7.50;2.70;;;23.20;94.30;;;;;;5059520;28;20055;-84
2023/09/01 08:21:07;;;;;;;6.30;2.55;;;23.30;94.50;;;;;;5039844;28;20507;-80
2023/09/01 08:23:35;;;;;;;9.07;3.00;;;23.30;93.70;;;;;;5040267;28;20048;-78
2023/09/01 08:26:05;;;;;;;6.85;3.40;;;23.30;93.90;;;;;;5027951;28;20523;-87
2023/09/01 08:28:35;;;;;;;8.07;2.83;;;23.50;93.70;;;;;;5061484;28;20041;-82
2023/09/01 08:31:06;;;;;;;8.18;3.10;;;23.70;93.50;;;;;;5067304;28;20037;-87
2023/09/01 08:33:33;;;;;;;7.57;2.90;;;23.90;93.20;;;;;;5045667;28;20045;-83
2023/09/01 08:36:04;;;;;;;9.27;3.35;;;24.00;92.90;;;;;;5035919;28;20075;-84
2023/09/01 08:38:32;;;;;;;9.05;4.57;;;24.00;92.50;;;;;;5032510;28;20079;-81
2023/09/01 08:41:06;;;;;;;5.75;3.35;;;24.30;92.50;;;;;;5069550;28;20045;-89
2023/09/01 08:43:36;;;;;;;8.00;2.80;;;24.40;92.20;;;;;;5058019;28;20097;-78
2023/09/01 08:46:04;;;;;;;8.68;2.95;;;24.40;92.10;;;;;;5066336;28;20088;-85
2023/09/01 08:48:35;;;;;;;6.90;3.00;;;24.50;91.90;;;;;;5033397;28;20111;-83
2023/09/01 08:51:05;;;;;;;6.22;2.70;;;24.70;91.60;;;;;;5033541;28;20160;-80
2023/09/01 08:53:39;;;;;;;9.45;3.22;;;24.90;91.30;;;;;;5030328;28;20068;-89
2023/09/01 08:56:10;;;;;;;5.65;2.78;;;25.00;90.90;;;;;;5050330;28;20432;-85
2023/09/01 08:58:55;;;;;;;5.25;2.58;;;25.00;90.70;;;;;;5042608;28;20087;-83
2023/09/01 09:01:22;;;;;;;7.32;3.17;;;25.20;90.40;;;;;;5046639;28;20044;-81
2023/09/01 09:03:50;;;;;;;4.43;2.20;;;25.30;90.20;;;;;;5066250;28;20122;-82
2023/09/01 09:06:37;;;;;;;5.65;2.60;;;25.40;90.00;;;;;;5051924;28;20361;-86
2023/09/01 09:09:15;;;;;;;6.85;2.97;;;25.40;89.90;;;;;;5045799;28;20021;-88
2023/09/01 09:11:58;;;;;;;6.20;2.95;;;25.60;89.20;;;;;;5045276;28;20045;-84
2023/09/01 09:14:27;;;;;;;6.45;2.65;;;25.80;88.40;;;;;;5060139;28;20041;-82
2023/09/01 09:17:05;;;;;;;7.72;3.03;;;25.80;87.70;;;;;;5059493;28;20036;-82
2023/09/01 09:19:33;;;;;;;6.20;2.67;;;25.70;87.90;;;;;;5049333;28;20044;-88
2023/09/01 09:22:06;;;;;;;5.63;2.75;;;25.80;88.30;;;;;;5050839;28;20056;-82
2023/09/01 09:24:38;;;;;;;9.50;3.70;;;25.80;87.80;;;;;;5036288;28;20063;-88
2023/09/01 09:27:06;;;;;;;6.68;2.50;;;25.60;87.90;;;;;;5035766;28;20041;-87
2023/09/01 09:29:40;;;;;;;7.93;2.95;;;25.70;87.40;;;;;;5046457;28;20041;-87
2023/09/01 09:32:22;;;;;;;11.35;3.03;;;25.70;87.30;;;;;;5035002;28;20072;-85
2023/09/01 09:35:16;;;;;;;5.80;2.67;;;25.80;87.10;;;;;;5052513;28;20059;-78
2023/09/01 09:37:57;;;;;;;6.32;2.20;;;25.90;86.40;;;;;;5046497;28;20045;-81
2023/09/01 09:40:26;;;;;;;6.25;2.80;;;26.00;86.30;;;;;;5054435;28;20048;-89
2023/09/01 09:43:01;;;;;;;4.88;2.47;;;26.10;86.10;;;;;;5054249;28;20032;-82
2023/09/01 09:45:46;;;;;;;5.78;2.45;;;26.20;85.60;;;;;;5035958;28;20095;-86
2023/09/01 09:48:15;;;;;;;6.50;2.80;;;26.40;85.30;;;;;;5046882;28;20063;-88
2023/09/01 09:50:50;;;;;;;7.80;2.85;;;26.80;84.80;;;;;;5064355;28;20021;-87
2023/09/01 09:53:21;;;;;;;7.70;2.85;;;26.80;83.70;;;;;;5076693;28;20103;-83
2023/09/01 09:56:08;;;;;;;6.97;2.53;;;26.70;83.90;;;;;;5068454;28;20048;-88
2023/09/01 09:58:42;;;;;;;5.90;2.40;;;26.50;83.40;;;;;;5048321;28;20037;-83
2023/09/01 10:01:19;;;;;;;6.70;2.58;;;26.70;83.30;;;;;;5048184;28;20033;-90
2023/09/01 10:04:26;;;;;;;6.93;2.97;;;26.80;82.90;;;;;;5045634;28;20040;-90
2023/09/01 10:07:14;;;;;;;8.90;2.92;;;27.10;83.20;;;;;;5064384;28;20380;-88
2023/09/01 10:09:51;;;;;;;9.10;2.60;;;27.20;81.20;;;;;;5039918;28;20049;-90
2023/09/01 10:12:21;;;;;;;7.53;2.90;;;26.70;82.90;;;;;;5018976;28;20068;-78
2023/09/01 10:14:50;;;;;;;5.60;2.53;;;26.80;81.80;;;;;;5045256;28;20067;-77
2023/09/01 10:17:25;;;;;;;6.50;2.58;;;26.90;81.50;;;;;;5061382;28;20029;-88
2023/09/01 10:19:54;;;;;;;8.02;2.60;;;27.20;80.80;;;;;;5066961;28;20163;-86
2023/09/01 10:22:25;;;;;;;9.85;5.57;;;27.20;80.30;;;;;;5066188;28;20060;-87
2023/09/01 10:25:15;;;;;;;;;;;27.30;80.40;;;;;;5052808;28;20045;-88
2023/09/01 10:28:12;;;;;;;5.70;2.88;;;27.50;80.00;;;;;;5051279;28;20338;-87
2023/09/01 10:30:45;;;;;;;5.07;3.00;;;27.70;79.50;;;;;;5068629;28;20037;-87
2023/09/01 10:33:15;;;;;;;8.88;3.85;;;27.80;79.50;;;;;;5065018;28;20064;-90
2023/09/01 10:36:01;;;;;;;6.40;3.10;;;28.00;78.80;;;;;;5063982;28;20048;-87
2023/09/01 10:39:21;;;;;;;5.40;2.70;;;28.20;78.10;;;;;;5060330;28;20025;-83
2023/09/01 10:42:03;;;;;;;7.13;2.77;;;28.50;77.30;;;;;;5052443;28;20037;-89
2023/09/01 10:44:42;;;;;;;7.43;3.38;;;28.50;76.90;;;;;;5050494;28;20055;-86
2023/09/01 10:47:32;;;;;;;6.45;3.13;;;28.20;76.60;;;;;;5060498;28;20048;-87
2023/09/01 10:50:06;;;;;;;7.65;3.10;;;28.20;76.60;;;;;;5058617;28;20037;-89
2023/09/01 10:52:42;;;;;;;6.95;3.30;;;28.40;75.80;;;;;;5058644;28;20108;-89
2023/09/01 10:55:10;;;;;;;7.05;3.42;;;28.10;75.80;;;;;;5023673;28;20034;-88
2023/09/01 10:57:51;;;;;;;6.90;3.53;;;28.40;75.40;;;;;;5071650;28;20045;-83
2023/09/01 11:00:33;;;;;;;5.55;3.00;;;28.30;75.70;;;;;;5022151;28;20040;-83
2023/09/01 11:03:31;;;;;;;6.13;3.10;;;28.40;73.80;;;;;;5073496;28;20037;-86
2023/09/01 11:06:04;;;;;;;7.10;3.55;;;28.50;74.10;;;;;;5054655;28;20033;-90
2023/09/01 11:08:35;;;;;;;7.03;3.45;;;28.90;73.90;;;;;;5073964;28;20052;-88
2023/09/01 11:11:20;;;;;;;8.55;2.78;;;29.10;71.80;;;;;;5056791;28;20066;-78
2023/09/01 11:13:55;;;;;;;6.93;3.35;;;28.80;71.10;;;;;;5063990;28;20041;-89
2023/09/01 11:16:29;;;;;;;5.85;2.58;;;29.00;69.70;;;;;;5039740;28;20048;-91
2023/09/01 11:19:03;;;;;;;5.70;3.15;;;28.70;70.10;;;;;;5051849;28;20048;-88
2023/09/01 11:21:34;;;;;;;13.50;6.90;;;28.70;70.20;;;;;;5068268;28;20037;-86
2023/09/01 11:24:03;;;;;;;6.90;3.30;;;28.90;70.00;;;;;;5057740;28;20063;-88
2023/09/01 11:26:41;;;;;;;6.95;3.10;;;28.70;69.20;;;;;;5057742;28;20040;-89
2023/09/01 11:29:12;;;;;;;9.65;3.60;;;28.90;68.30;;;;;;5050265;28;20052;-86
2023/09/01 11:31:48;;;;;;;9.15;3.80;;;29.10;69.20;;;;;;5074543;28;20044;-88
2023/09/01 11:34:16;;;;;;;8.85;3.85;;;29.10;67.70;;;;;;5074784;28;20407;-91
2023/09/01 11:36:50;;;;;;;5.87;3.27;;;29.20;68.00;;;;;;5058115;28;20047;-81
2023/09/01 11:39:18;;;;;;;6.65;2.92;;;29.30;67.30;;;;;;5057062;28;20289;-89
2023/09/01 11:42:03;;;;;;;5.75;2.92;;;29.50;66.70;;;;;;5080628;28;20406;-90
2023/09/01 11:44:31;;;;;;;6.68;2.80;;;29.70;66.10;;;;;;5078501;28;20041;-90
2023/09/01 11:47:11;;;;;;;7.97;3.30;;;29.90;64.90;;;;;;5074194;28;20228;-87
2023/09/01 11:49:42;;;;;;;5.70;3.08;;;30.00;65.30;;;;;;5055907;28;20064;-89
2023/09/01 11:52:12;;;;;;;7.93;3.40;;;30.50;65.00;;;;;;5073536;28;20037;-88
2023/09/01 11:54:41;;;;;;;8.40;3.53;;;30.60;65.20;;;;;;5082761;28;20031;-92
2023/09/01 11:57:15;;;;;;;5.03;2.80;;;30.70;64.90;;;;;;5077309;28;20038;-92
2023/09/01 11:59:46;;;;;;;7.20;3.17;;;30.30;65.00;;;;;;5077764;28;20067;-81
2023/09/01 12:02:20;;;;;;;5.85;3.00;;;30.50;65.00;;;;;;5074787;28;20047;-81
2023/09/01 12:04:52;;;;;;;8.07;3.17;;;30.80;64.20;;;;;;5059193;28;20096;-87
2023/09/01 12:07:26;;;;;;;5.43;2.92;;;30.80;63.20;;;;;;5074527;28;20033;-79
2023/09/01 12:09:58;;;;;;;5.85;2.97;;;30.80;63.30;;;;;;5049529;28;20104;-89
2023/09/01 12:12:37;;;;;;;6.00;2.58;;;30.90;63.10;;;;;;5054040;28;20112;-86
2023/09/01 12:15:30;;;;;;;5.72;2.85;;;30.90;62.70;;;;;;5054280;28;20041;-88
2023/09/01 12:18:58;;;;;;;8.70;3.38;;;30.90;62.50;;;;;;5051225;28;20060;-85
2023/09/01 12:22:03;;;;;;;6.43;3.45;;;31.00;63.10;;;;;;5043291;28;20096;-90
2023/09/01 12:24:32;;;;;;;5.95;2.83;;;31.30;63.10;;;;;;5081103;28;20047;-93
2023/09/01 12:26:59;;;;;;;7.50;3.42;;;31.40;62.70;;;;;;5085539;28;20025;-93
2023/09/01 12:29:26;;;;;;;7.40;2.58;;;31.50;62.30;;;;;;5058008;28;20048;-78
2023/09/01 12:31:55;;;;;;;4.82;2.95;;;31.70;61.30;;;;;;5064190;28;20361;-82
2023/09/01 12:34:24;;;;;;;5.93;2.72;;;31.80;60.50;;;;;;5072718;28;20032;-78
2023/09/01 12:36:54;;;;;;;5.63;2.83;;;31.90;59.40;;;;;;5076580;28;20056;-81
2023/09/01 12:39:42;;;;;;;6.38;2.92;;;32.10;59.50;;;;;;5072529;28;20037;-80
2023/09/01 12:42:09;;;;;;;6.40;2.88;;;31.70;58.60;;;;;;5074648;28;20043;-88
2023/09/01 12:44:38;;;;;;;5.15;2.60;;;31.80;57.80;;;;;;5056970;28;20055;-88
2023/09/01 12:47:06;;;;;;;4.55;2.53;;;31.90;57.50;;;;;;5078394;28;20085;-92
2023/09/01 12:49:38;;;;;;;5.85;2.70;;;32.30;57.30;;;;;;5081289;28;20037;-93
2023/09/01 12:52:07;;;;;;;7.07;2.92;;;32.00;57.20;;;;;;5076413;28;20039;-88
2023/09/01 12:54:37;;;;;;;7.20;3.15;;;31.80;58.60;;;;;;5060322;28;20100;-89
2023/09/01 12:57:08;;;;;;;8.35;4.82;;;31.70;58.60;;;;;;5041637;28;20117;-91
2023/09/01 12:59:36;;;;;;;6.57;4.20;;;32.00;59.00;;;;;;5051027;28;20060;-93
2023/09/01 13:02:03;;;;;;;6.55;3.17;;;32.00;58.70;;;;;;5071772;28;20056;-91
2023/09/01 13:04:39;;;;;;;7.32;3.50;;;32.40;58.50;;;;;;5068970;28;20220;-78